Terminal Aerodrome Forecast
Issued by NWS

Home | Current Version | Previous Version | Text Only | Print | Product List | Glossary On
Versions: 1 2 3 4 5 6 7 8 9 10 11 12
000
FTUS44 KOUN 251723
TAFGAG
TAF
KGAG 251723Z 2518/2618 18011KT P6SM VCSH BKN090
      TEMPO 2523/2601 01012G20KT 4SM -SHRA SCT050 OVC080
     FM260100 12007KT P6SM BKN080=

USA.gov is the U.S. government's official web portal to all federal, state and local government web resources and services.